Time;durP1;ratioP1;P1;durP2;ratioP2;P2;SDS_P1;SDS_P2;PMS_P1;PMS_P2;Temp;Humidity;BMP_temperature;BMP_pressure;BME280_temperature;BME280_humidity;BME280_pressure;Samples;Min_cycle;Max_cycle;Signal;HPM_P1;HPM_P2
2021/06/10 00:02:18;;;;;;;11.75;8.73;;;;;;;;;;5093223;28;20063;-47
2021/06/10 00:04:44;;;;;;;12.95;7.85;;;;;;;;;;5093285;28;20046;-46
2021/06/10 00:07:10;;;;;;;13.82;8.18;;;;;;;;;;5093184;28;20031;-48
2021/06/10 00:09:36;;;;;;;14.27;8.40;;;;;;;;;;5092645;28;20024;-45
2021/06/10 00:12:03;;;;;;;15.07;8.23;;;;;;;;;;5092839;28;20103;-46
2021/06/10 00:14:29;;;;;;;11.10;7.65;;;;;;;;;;5092659;28;20093;-46
2021/06/10 00:16:55;;;;;;;14.35;7.22;;;;;;;;;;5092848;28;20463;-48
2021/06/10 00:19:21;;;;;;;12.65;8.60;;;;;;;;;;5093013;28;20020;-47
2021/06/10 00:21:48;;;;;;;15.73;8.55;;;;;;;;;;5093150;28;20020;-46
2021/06/10 00:24:14;;;;;;;14.15;7.43;;;;;;;;;;5092845;28;20024;-46
2021/06/10 00:26:41;;;;;;;8.82;7.05;;;;;;;;;;5092696;28;20472;-46
2021/06/10 00:29:07;;;;;;;13.18;7.97;;;;;;;;;;5094065;28;20035;-45
2021/06/10 00:31:33;;;;;;;14.30;8.48;;;;;;;;;;5096761;28;20025;-46
2021/06/10 00:33:59;;;;;;;18.55;10.68;;;;;;;;;;5096561;28;20056;-46
2021/06/10 00:36:25;;;;;;;13.70;9.68;;;;;;;;;;5096434;28;20027;-46
2021/06/10 00:38:51;;;;;;;26.25;12.80;;;;;;;;;;5096537;28;20028;-46
2021/06/10 00:41:20;;;;;;;26.48;19.35;;;;;;;;;;5096291;28;20139;-45
2021/06/10 00:43:47;;;;;;;15.45;11.60;;;;;;;;;;5096496;28;20107;-47
2021/06/10 00:46:13;;;;;;;12.60;9.82;;;;;;;;;;5096338;28;20039;-45
2021/06/10 00:48:39;;;;;;;19.38;14.93;;;;;;;;;;5095405;28;20113;-45
2021/06/10 00:51:07;;;;;;;27.45;21.17;;;;;;;;;;5096366;28;20020;-45
2021/06/10 00:53:33;;;;;;;28.58;16.85;;;;;;;;;;5096292;28;20050;-44
2021/06/10 00:56:00;;;;;;;42.30;30.65;;;;;;;;;;5096027;28;20375;-45
2021/06/10 00:58:27;;;;;;;28.80;18.80;;;;;;;;;;5096006;28;20028;-46
2021/06/10 01:00:53;;;;;;;16.58;11.93;;;;;;;;;;5096101;28;20080;-45
2021/06/10 01:03:20;;;;;;;12.18;7.35;;;;;;;;;;5095912;28;20028;-45
2021/06/10 01:05:48;;;;;;;9.20;8.25;;;;;;;;;;5095909;28;20024;-45
2021/06/10 01:08:14;;;;;;;13.63;10.88;;;;;;;;;;5095865;28;20475;-44
2021/06/10 01:10:59;;;;;;;78.47;58.22;;;;;;;;;;5095748;28;20051;-46
2021/06/10 01:13:27;;;;;;;129.10;102.22;;;;;;;;;;5095502;28;20044;-46
2021/06/10 01:15:56;;;;;;;128.35;105.63;;;;;;;;;;5095793;28;20019;-46
2021/06/10 01:18:23;;;;;;;211.68;165.02;;;;;;;;;;5095703;28;20123;-46
2021/06/10 01:20:49;;;;;;;158.35;120.60;;;;;;;;;;5095706;28;20027;-46
2021/06/10 01:23:22;;;;;;;90.93;71.80;;;;;;;;;;5095719;28;20095;-46
2021/06/10 01:25:48;;;;;;;42.28;29.67;;;;;;;;;;5095793;28;20020;-45
2021/06/10 01:28:17;;;;;;;22.67;17.73;;;;;;;;;;5095647;28;20048;-45
2021/06/10 01:30:47;;;;;;;17.65;12.10;;;;;;;;;;5095502;28;20520;-45
2021/06/10 01:33:21;;;;;;;14.07;10.40;;;;;;;;;;5095519;28;20074;-46
2021/06/10 01:35:56;;;;;;;17.25;10.40;;;;;;;;;;5095529;28;20379;-47
2021/06/10 01:38:23;;;;;;;11.57;9.98;;;;;;;;;;5095568;28;20387;-45
2021/06/10 01:40:50;;;;;;;12.48;11.25;;;;;;;;;;5094909;28;20127;-45
2021/06/10 01:43:17;;;;;;;18.35;14.45;;;;;;;;;;5095313;28;20036;-46
2021/06/10 01:45:44;;;;;;;14.13;11.70;;;;;;;;;;5095295;28;20024;-45
2021/06/10 01:48:10;;;;;;;18.05;11.43;;;;;;;;;;5095409;28;20024;-46
2021/06/10 01:50:37;;;;;;;15.27;10.23;;;;;;;;;;5095176;28;20611;-45
2021/06/10 01:53:03;;;;;;;17.98;9.15;;;;;;;;;;5095222;28;20035;-46
2021/06/10 01:55:29;;;;;;;15.25;9.45;;;;;;;;;;5095332;28;20484;-46
2021/06/10 01:57:58;;;;;;;15.45;10.05;;;;;;;;;;5094884;28;20518;-45
2021/06/10 02:00:24;;;;;;;13.38;9.52;;;;;;;;;;5095233;28;20020;-46
2021/06/10 02:02:51;;;;;;;11.68;10.43;;;;;;;;;;5095079;28;20020;-46
2021/06/10 02:05:19;;;;;;;18.58;10.65;;;;;;;;;;5094923;28;20070;-45
2021/06/10 02:07:45;;;;;;;16.02;10.77;;;;;;;;;;5095083;28;20028;-44
2021/06/10 02:10:13;;;;;;;16.27;10.05;;;;;;;;;;5094801;28;20024;-46
2021/06/10 02:12:39;;;;;;;12.27;9.20;;;;;;;;;;5094650;28;20055;-47
2021/06/10 02:15:09;;;;;;;12.65;9.73;;;;;;;;;;5094482;28;20510;-45
2021/06/10 02:17:36;;;;;;;21.17;9.60;;;;;;;;;;5094682;28;20039;-45
2021/06/10 02:20:04;;;;;;;16.17;9.32;;;;;;;;;;5094643;28;20483;-46
2021/06/10 02:22:30;;;;;;;44.55;10.52;;;;;;;;;;5094709;28;20032;-45
2021/06/10 02:24:56;;;;;;;14.27;8.18;;;;;;;;;;5094828;28;20052;-45
2021/06/10 02:27:23;;;;;;;47.83;9.98;;;;;;;;;;5094517;28;20021;-45
2021/06/10 02:29:49;;;;;;;44.38;10.32;;;;;;;;;;5094611;28;20499;-45
2021/06/10 02:32:15;;;;;;;12.68;9.18;;;;;;;;;;5094535;28;20028;-45
2021/06/10 02:34:41;;;;;;;10.95;8.50;;;;;;;;;;5094335;28;20032;-45
2021/06/10 02:37:08;;;;;;;10.77;8.00;;;;;;;;;;5094227;28;20558;-45
2021/06/10 02:39:39;;;;;;;13.45;8.77;;;;;;;;;;5094191;28;20107;-46
2021/06/10 02:42:06;;;;;;;15.57;8.50;;;;;;;;;;5094062;28;20031;-45
2021/06/10 02:44:32;;;;;;;32.10;9.60;;;;;;;;;;5093928;28;20121;-45
2021/06/10 02:47:03;;;;;;;19.90;9.30;;;;;;;;;;5094075;28;20233;-45
2021/06/10 02:49:31;;;;;;;24.67;8.00;;;;;;;;;;5093956;28;20035;-45
2021/06/10 02:51:58;;;;;;;12.27;6.70;;;;;;;;;;5093547;28;20384;-43
2021/06/10 02:54:26;;;;;;;23.30;6.70;;;;;;;;;;5093697;28;20103;-45
2021/06/10 02:56:52;;;;;;;11.02;6.15;;;;;;;;;;5093742;28;20024;-46
2021/06/10 02:59:19;;;;;;;7.45;5.47;;;;;;;;;;5093957;28;20034;-43
2021/06/10 03:01:46;;;;;;;7.47;6.13;;;;;;;;;;5093880;28;20016;-46
2021/06/10 03:04:16;;;;;;;18.67;6.22;;;;;;;;;;5093922;28;20488;-45
2021/06/10 03:06:43;;;;;;;25.35;6.32;;;;;;;;;;5093819;28;20468;-44
2021/06/10 03:09:10;;;;;;;9.35;6.88;;;;;;;;;;5093810;28;20052;-45
2021/06/10 03:11:38;;;;;;;7.50;6.28;;;;;;;;;;5093704;28;20020;-46
2021/06/10 03:14:05;;;;;;;7.75;5.50;;;;;;;;;;5093371;28;20412;-44
2021/06/10 03:16:31;;;;;;;7.22;5.53;;;;;;;;;;5093765;28;20059;-46
2021/06/10 03:18:59;;;;;;;7.05;5.43;;;;;;;;;;5093555;28;20035;-46
2021/06/10 03:21:26;;;;;;;7.00;5.07;;;;;;;;;;5093474;28;20032;-46
2021/06/10 03:23:52;;;;;;;7.07;5.20;;;;;;;;;;5093471;28;20048;-45
2021/06/10 03:26:22;;;;;;;6.45;5.82;;;;;;;;;;5093533;28;20391;-46
2021/06/10 03:28:48;;;;;;;7.30;5.88;;;;;;;;;;5093929;28;20032;-45
2021/06/10 03:31:14;;;;;;;8.38;5.72;;;;;;;;;;5093441;28;20024;-45
2021/06/10 03:33:40;;;;;;;9.35;5.70;;;;;;;;;;5093403;28;20479;-45
2021/06/10 03:36:09;;;;;;;10.52;6.03;;;;;;;;;;5093353;28;20024;-45
2021/06/10 03:38:35;;;;;;;9.93;5.40;;;;;;;;;;5093413;28;20115;-45
2021/06/10 03:41:02;;;;;;;8.55;6.13;;;;;;;;;;5092130;28;20454;-45
2021/06/10 03:43:28;;;;;;;10.48;6.10;;;;;;;;;;5093228;28;20034;-46
2021/06/10 03:45:55;;;;;;;11.13;6.03;;;;;;;;;;5093321;28;20507;-43
2021/06/10 03:48:21;;;;;;;7.65;5.82;;;;;;;;;;5093189;28;20028;-45
2021/06/10 03:50:48;;;;;;;7.93;5.90;;;;;;;;;;5093357;28;20476;-45
2021/06/10 03:53:15;;;;;;;7.78;5.80;;;;;;;;;;5093273;28;20077;-46
2021/06/10 03:55:41;;;;;;;7.50;5.90;;;;;;;;;;5093336;28;20032;-45
2021/06/10 03:58:08;;;;;;;7.68;5.53;;;;;;;;;;5093123;28;20032;-45
2021/06/10 04:00:36;;;;;;;6.60;5.53;;;;;;;;;;5093217;28;20031;-45
2021/06/10 04:03:02;;;;;;;7.75;5.43;;;;;;;;;;5093120;28;20522;-44
2021/06/10 04:05:31;;;;;;;7.70;6.05;;;;;;;;;;5096815;28;20431;-46
2021/06/10 04:07:57;;;;;;;17.40;9.57;;;;;;;;;;5097146;28;20486;-45
2021/06/10 04:10:23;;;;;;;11.98;8.25;;;;;;;;;;5097051;28;20073;-45
2021/06/10 04:12:50;;;;;;;9.65;6.65;;;;;;;;;;5096752;28;20059;-45
2021/06/10 04:15:16;;;;;;;11.32;6.88;;;;;;;;;;5096981;28;20024;-46
2021/06/10 04:17:43;;;;;;;10.68;7.30;;;;;;;;;;5096931;28;20040;-45
2021/06/10 04:20:09;;;;;;;18.13;11.75;;;;;;;;;;5096952;28;20027;-46
2021/06/10 04:22:35;;;;;;;14.75;9.98;;;;;;;;;;5096897;28;20028;-46
2021/06/10 04:25:01;;;;;;;12.43;7.30;;;;;;;;;;5096929;28;20031;-45
2021/06/10 04:27:27;;;;;;;8.07;5.93;;;;;;;;;;5096704;28;20425;-45
2021/06/10 04:29:53;;;;;;;8.68;5.57;;;;;;;;;;5096822;28;20047;-45
2021/06/10 04:32:19;;;;;;;14.27;9.43;;;;;;;;;;5096552;28;20032;-46
2021/06/10 04:34:48;;;;;;;20.42;10.70;;;;;;;;;;5096770;28;20478;-46
2021/06/10 04:37:14;;;;;;;8.52;6.35;;;;;;;;;;5096592;28;20020;-45
2021/06/10 04:39:40;;;;;;;9.77;6.95;;;;;;;;;;5096657;28;20483;-46
2021/06/10 04:42:06;;;;;;;17.38;10.27;;;;;;;;;;5096437;28;20047;-46
2021/06/10 04:44:32;;;;;;;15.50;10.20;;;;;;;;;;5096337;28;20391;-46
2021/06/10 04:47:01;;;;;;;10.80;7.63;;;;;;;;;;5096516;28;20035;-46
2021/06/10 04:49:27;;;;;;;9.63;7.03;;;;;;;;;;5096620;28;20451;-45
2021/06/10 04:51:53;;;;;;;7.97;4.93;;;;;;;;;;5096405;28;20028;-46
2021/06/10 04:54:19;;;;;;;7.22;5.35;;;;;;;;;;5096355;28;20076;-46
2021/06/10 04:56:45;;;;;;;7.85;4.93;;;;;;;;;;5096006;28;20020;-45
2021/06/10 04:59:13;;;;;;;12.05;8.18;;;;;;;;;;5096280;28;20073;-46
2021/06/10 05:01:39;;;;;;;15.23;10.07;;;;;;;;;;5096139;28;20047;-46
2021/06/10 05:04:05;;;;;;;13.90;8.68;;;;;;;;;;5080693;28;20024;-46
2021/06/10 05:06:31;;;;;;;7.13;4.72;;;;;;;;;;5075157;28;20021;-46
2021/06/10 05:08:57;;;;;;;20.70;12.95;;;;;;;;;;5075943;28;20391;-46
2021/06/10 05:11:23;;;;;;;6.60;4.82;;;;;;;;;;5076082;28;20028;-47
2021/06/10 05:13:49;;;;;;;7.28;4.85;;;;;;;;;;5075460;28;20052;-47
2021/06/10 05:16:15;;;;;;;14.80;8.70;;;;;;;;;;5074703;28;20494;-45
2021/06/10 05:18:42;;;;;;;9.05;5.80;;;;;;;;;;5075562;28;20037;-45
2021/06/10 05:21:08;;;;;;;7.00;5.15;;;;;;;;;;5075697;28;20040;-46
2021/06/10 05:23:35;;;;;;;8.65;5.70;;;;;;;;;;5075722;28;20432;-46
2021/06/10 05:26:02;;;;;;;7.60;4.90;;;;;;;;;;5075525;28;20036;-45
2021/06/10 05:28:34;;;;;;;7.55;4.00;;;;;;;;;;5075340;28;20056;-45
2021/06/10 05:31:00;;;;;;;10.93;6.38;;;;;;;;;;5075420;28;20081;-46
2021/06/10 05:33:26;;;;;;;7.80;5.32;;;;;;;;;;5074178;28;20029;-45
2021/06/10 05:35:52;;;;;;;16.65;8.05;;;;;;;;;;5075232;28;20036;-46
2021/06/10 05:38:18;;;;;;;17.77;12.25;;;;;;;;;;5075130;28;20484;-46
2021/06/10 05:40:44;;;;;;;12.15;7.95;;;;;;;;;;5075176;28;20025;-46
2021/06/10 05:43:10;;;;;;;42.45;24.90;;;;;;;;;;5075040;28;20039;-46
2021/06/10 05:45:36;;;;;;;25.65;16.05;;;;;;;;;;5075116;28;20476;-45
2021/06/10 05:48:02;;;;;;;23.50;13.75;;;;;;;;;;5074998;28;20036;-45
2021/06/10 05:50:28;;;;;;;20.25;12.48;;;;;;;;;;5074995;28;20432;-46
2021/06/10 05:52:54;;;;;;;11.27;7.88;;;;;;;;;;5075035;28;20029;-47
2021/06/10 05:55:20;;;;;;;7.28;5.13;;;;;;;;;;5075125;28;20021;-46
2021/06/10 05:57:46;;;;;;;10.13;6.60;;;;;;;;;;5074812;28;20090;-47
2021/06/10 06:00:15;;;;;;;8.48;5.75;;;;;;;;;;5074786;28;20484;-46
2021/06/10 06:02:41;;;;;;;8.80;5.53;;;;;;;;;;5074564;28;20052;-46
2021/06/10 06:05:07;;;;;;;6.40;4.43;;;;;;;;;;5074684;28;20108;-45
2021/06/10 06:07:33;;;;;;;20.33;11.63;;;;;;;;;;5074662;28;20032;-46
2021/06/10 06:09:59;;;;;;;23.35;12.15;;;;;;;;;;5074437;28;20047;-46
2021/06/10 06:12:25;;;;;;;12.48;8.15;;;;;;;;;;5074297;28;20028;-46
2021/06/10 06:14:51;;;;;;;22.90;13.80;;;;;;;;;;5074393;28;20186;-47
2021/06/10 06:17:18;;;;;;;9.60;6.35;;;;;;;;;;5074377;28;20032;-46
2021/06/10 06:19:44;;;;;;;10.07;6.20;;;;;;;;;;5074486;28;20020;-46
2021/06/10 06:22:11;;;;;;;8.48;5.07;;;;;;;;;;5074531;28;20103;-45
2021/06/10 06:24:37;;;;;;;5.72;4.07;;;;;;;;;;5074471;28;20017;-46
2021/06/10 06:27:03;;;;;;;4.47;3.70;;;;;;;;;;5074276;28;20021;-46
2021/06/10 06:29:30;;;;;;;6.63;4.28;;;;;;;;;;5074144;28;20028;-44
2021/06/10 06:31:56;;;;;;;13.85;6.65;;;;;;;;;;5074381;28;20027;-46
2021/06/10 06:34:22;;;;;;;9.52;5.47;;;;;;;;;;5074034;28;20046;-48
2021/06/10 06:36:48;;;;;;;8.52;5.68;;;;;;;;;;5073998;28;20078;-46
2021/06/10 06:39:15;;;;;;;8.10;4.95;;;;;;;;;;5073974;28;20120;-45
2021/06/10 06:41:43;;;;;;;4.85;3.97;;;;;;;;;;5074031;28;20025;-45
2021/06/10 06:44:10;;;;;;;9.77;3.92;;;;;;;;;;5073802;28;20057;-44
2021/06/10 06:46:36;;;;;;;11.45;4.63;;;;;;;;;;5073854;28;20032;-45
2021/06/10 06:49:02;;;;;;;5.10;3.67;;;;;;;;;;5073750;28;20472;-45
2021/06/10 06:51:31;;;;;;;6.22;3.60;;;;;;;;;;5073831;28;20044;-45
2021/06/10 06:53:57;;;;;;;4.45;3.05;;;;;;;;;;5073751;28;20017;-45
2021/06/10 06:56:23;;;;;;;29.55;17.15;;;;;;;;;;5073756;28;20028;-45
2021/06/10 06:58:50;;;;;;;16.58;10.07;;;;;;;;;;5073756;28;20033;-46
2021/06/10 07:01:16;;;;;;;13.63;8.48;;;;;;;;;;5073738;28;20388;-45
2021/06/10 07:03:42;;;;;;;17.30;10.07;;;;;;;;;;5073599;28;20020;-45
2021/06/10 07:06:08;;;;;;;7.65;4.93;;;;;;;;;;5073734;28;20021;-45
2021/06/10 07:08:34;;;;;;;8.60;4.80;;;;;;;;;;5073789;28;20052;-45
2021/06/10 07:11:01;;;;;;;3.95;3.20;;;;;;;;;;5073542;28;20035;-47
2021/06/10 07:13:27;;;;;;;6.93;3.30;;;;;;;;;;5071912;28;20097;-46
2021/06/10 07:15:53;;;;;;;3.78;3.45;;;;;;;;;;5073601;28;20028;-45
2021/06/10 07:18:20;;;;;;;7.05;4.68;;;;;;;;;;5073261;28;20041;-46
2021/06/10 07:20:46;;;;;;;5.15;3.92;;;;;;;;;;5073809;28;20364;-46
2021/06/10 07:23:12;;;;;;;5.20;3.92;;;;;;;;;;5073664;28;20029;-44
2021/06/10 07:25:38;;;;;;;4.93;4.07;;;;;;;;;;5073453;28;20017;-46
2021/06/10 07:28:04;;;;;;;9.63;6.88;;;;;;;;;;5073414;28;20067;-45
2021/06/10 07:30:34;;;;;;;6.68;4.68;;;;;;;;;;5073406;28;20440;-47
2021/06/10 07:33:00;;;;;;;5.50;4.10;;;;;;;;;;5073281;28;20033;-46
2021/06/10 07:35:30;;;;;;;5.35;4.00;;;;;;;;;;5073474;28;20435;-46
2021/06/10 07:37:56;;;;;;;4.95;3.45;;;;;;;;;;5072994;28;20043;-45
2021/06/10 07:40:25;;;;;;;6.25;3.20;;;;;;;;;;5072804;28;20016;-45
2021/06/10 07:42:53;;;;;;;4.70;3.92;;;;;;;;;;5073280;28;20503;-47
2021/06/10 07:45:19;;;;;;;3.25;2.80;;;;;;;;;;5073178;28;20025;-46
2021/06/10 07:47:45;;;;;;;6.63;4.93;;;;;;;;;;5073307;28;20468;-45
2021/06/10 07:50:11;;;;;;;6.10;4.38;;;;;;;;;;5073306;28;20025;-45
2021/06/10 07:52:38;;;;;;;7.22;5.95;;;;;;;;;;5073299;28;20087;-45
2021/06/10 07:55:04;;;;;;;8.23;4.93;;;;;;;;;;5073171;28;20140;-46
2021/06/10 07:57:30;;;;;;;4.15;3.22;;;;;;;;;;5073145;28;20108;-46
2021/06/10 07:59:56;;;;;;;3.47;3.13;;;;;;;;;;5073049;28;20040;-46
2021/06/10 08:02:24;;;;;;;4.10;3.70;;;;;;;;;;5072955;28;20017;-45
2021/06/10 08:04:50;;;;;;;3.15;2.72;;;;;;;;;;5072802;28;20036;-45
2021/06/10 08:07:16;;;;;;;4.35;2.72;;;;;;;;;;5071340;28;20027;-45
2021/06/10 08:09:42;;;;;;;8.15;4.65;;;;;;;;;;5072447;28;20492;-46
2021/06/10 08:12:08;;;;;;;5.90;3.05;;;;;;;;;;5072887;28;20147;-45
2021/06/10 08:14:35;;;;;;;5.28;3.90;;;;;;;;;;5072570;28;20052;-43
2021/06/10 08:17:01;;;;;;;6.60;4.45;;;;;;;;;;5072686;28;20024;-43
2021/06/10 08:19:27;;;;;;;16.63;9.07;;;;;;;;;;5072810;28;20387;-43
2021/06/10 08:21:53;;;;;;;6.80;4.57;;;;;;;;;;5072789;28;20031;-43
2021/06/10 08:24:19;;;;;;;15.65;8.60;;;;;;;;;;5072910;28;20032;-45
2021/06/10 08:26:47;;;;;;;25.80;14.70;;;;;;;;;;5072816;28;20099;-45
2021/06/10 08:29:13;;;;;;;11.18;7.57;;;;;;;;;;5072681;28;20021;-44
2021/06/10 08:31:39;;;;;;;31.52;18.15;;;;;;;;;;5072656;28;20129;-43
2021/06/10 08:34:05;;;;;;;17.50;12.23;;;;;;;;;;5072623;28;20024;-43
2021/06/10 08:36:31;;;;;;;35.95;21.77;;;;;;;;;;5072848;28;20385;-44
2021/06/10 08:38:57;;;;;;;151.70;101.03;;;;;;;;;;5072545;28;20044;-43
2021/06/10 08:41:27;;;;;;;78.28;43.25;;;;;;;;;;5072466;28;20028;-44
2021/06/10 08:43:53;;;;;;;91.22;51.05;;;;;;;;;;5072398;28;20037;-45
2021/06/10 08:46:21;;;;;;;33.63;21.80;;;;;;;;;;5072620;28;20381;-44
2021/06/10 08:48:49;;;;;;;16.45;9.98;;;;;;;;;;5072432;28;20031;-45
2021/06/10 08:51:15;;;;;;;6.35;5.10;;;;;;;;;;5074089;28;20068;-45
2021/06/10 08:53:42;;;;;;;4.68;3.95;;;;;;;;;;5076080;28;20024;-45
2021/06/10 08:56:08;;;;;;;4.53;2.90;;;;;;;;;;5076009;28;20024;-43
2021/06/10 08:58:34;;;;;;;3.80;3.15;;;;;;;;;;5075857;28;20040;-48
2021/06/10 09:01:01;;;;;;;3.80;2.90;;;;;;;;;;5075999;28;20028;-46
2021/06/10 09:03:29;;;;;;;10.73;6.82;;;;;;;;;;5075918;28;20025;-45
2021/06/10 09:06:01;;;;;;;7.65;5.80;;;;;;;;;;5075784;28;20036;-46
2021/06/10 09:08:28;;;;;;;6.53;4.20;;;;;;;;;;5075852;28;20511;-46
2021/06/10 09:11:08;;;;;;;7.78;5.25;;;;;;;;;;5075718;28;20059;-47
2021/06/10 09:13:47;;;;;;;21.60;14.93;;;;;;;;;;5075371;28;20136;-46
2021/06/10 09:16:18;;;;;;;7.45;6.10;;;;;;;;;;5075907;28;20025;-52
2021/06/10 09:18:51;;;;;;;8.85;6.22;;;;;;;;;;5074329;28;20041;-46
2021/06/10 09:21:26;;;;;;;9.30;5.78;;;;;;;;;;5075625;28;20024;-46
2021/06/10 09:23:52;;;;;;;18.50;12.35;;;;;;;;;;5075639;28;20029;-45
2021/06/10 09:26:18;;;;;;;15.32;10.57;;;;;;;;;;5075364;28;20030;-45
2021/06/10 09:28:46;;;;;;;46.72;25.38;;;;;;;;;;5075552;28;20030;-44
2021/06/10 09:31:12;;;;;;;25.83;17.35;;;;;;;;;;5075759;28;20074;-44
2021/06/10 09:33:40;;;;;;;16.70;10.85;;;;;;;;;;5075239;28;20024;-46
2021/06/10 09:36:06;;;;;;;25.27;16.63;;;;;;;;;;5075211;28;20032;-47
2021/06/10 09:38:32;;;;;;;18.35;11.55;;;;;;;;;;5075214;28;20043;-45
2021/06/10 09:41:03;;;;;;;19.30;10.95;;;;;;;;;;5075259;28;20055;-47
2021/06/10 09:43:45;;;;;;;8.57;5.75;;;;;;;;;;5074990;28;20388;-47
2021/06/10 09:46:11;;;;;;;20.20;13.52;;;;;;;;;;5074608;28;20017;-46
2021/06/10 09:48:37;;;;;;;12.50;8.48;;;;;;;;;;5078865;28;20039;-47
2021/06/10 09:51:03;;;;;;;13.95;9.85;;;;;;;;;;5095135;28;20024;-48
2021/06/10 09:53:32;;;;;;;20.08;14.18;;;;;;;;;;5095105;28;20024;-49
2021/06/10 09:56:05;;;;;;;19.88;12.02;;;;;;;;;;5094886;28;20048;-49
2021/06/10 09:58:36;;;;;;;29.67;20.63;;;;;;;;;;5094996;28;20043;-50
2021/06/10 10:01:02;;;;;;;;;;;;;;;;;;5095168;28;20027;-46
2021/06/10 10:03:29;;;;;;;24.80;15.98;;;;;;;;;;5094717;28;19911;-46
2021/06/10 10:06:00;;;;;;;18.85;11.80;;;;;;;;;;5094950;28;20028;-46
2021/06/10 10:08:28;;;;;;;12.15;8.57;;;;;;;;;;5094863;28;20016;-48
2021/06/10 10:10:55;;;;;;;15.95;10.75;;;;;;;;;;5094654;28;20039;-46
2021/06/10 10:13:21;;;;;;;11.55;8.18;;;;;;;;;;5094303;28;20400;-45
2021/06/10 10:15:48;;;;;;;24.88;17.98;;;;;;;;;;5094707;28;20048;-47
2021/06/10 10:18:17;;;;;;;13.10;9.63;;;;;;;;;;5094075;28;20039;-48
2021/06/10 10:20:44;;;;;;;11.50;7.60;;;;;;;;;;5094624;28;20027;-46
2021/06/10 10:23:10;;;;;;;22.17;14.00;;;;;;;;;;5094360;28;20020;-47
2021/06/10 10:25:36;;;;;;;14.40;10.50;;;;;;;;;;5094485;28;20020;-47
2021/06/10 10:28:05;;;;;;;13.98;9.20;;;;;;;;;;5094382;28;20036;-47
2021/06/10 10:30:31;;;;;;;23.75;13.32;;;;;;;;;;5094629;28;20024;-46
2021/06/10 10:32:57;;;;;;;15.38;9.77;;;;;;;;;;5094441;28;20077;-47
2021/06/10 10:35:23;;;;;;;39.55;25.23;;;;;;;;;;5092793;28;20463;-44
2021/06/10 10:37:50;;;;;;;25.25;14.88;;;;;;;;;;5094110;28;20472;-49
2021/06/10 10:40:23;;;;;;;18.15;8.00;;;;;;;;;;5094397;28;20110;-57
2021/06/10 10:42:52;;;;;;;6.25;4.90;;;;;;;;;;5094086;28;20028;-44
2021/06/10 10:45:26;;;;;;;5.43;4.05;;;;;;;;;;5094013;28;20069;-45
2021/06/10 10:48:27;;;;;;;8.45;4.38;;;;;;;;;;5094526;28;20029;-54
2021/06/10 10:50:48;;;;;;;3.15;2.22;;;;;;;;;;5096497;28;20052;-58
2021/06/10 10:53:22;;;;;;;21.50;13.45;;;;;;;;;;5094219;28;20028;-58
2021/06/10 10:56:03;;;;;;;13.82;8.52;;;;;;;;;;5094207;28;20391;-56
2021/06/10 10:58:29;;;;;;;77.05;49.92;;;;;;;;;;5093825;28;20387;-60
2021/06/10 11:00:57;;;;;;;79.45;51.67;;;;;;;;;;5093816;28;20380;-50
2021/06/10 11:03:26;;;;;;;39.70;25.77;;;;;;;;;;5093976;28;20020;-55
2021/06/10 11:05:52;;;;;;;31.27;20.17;;;;;;;;;;5094146;28;20364;-44
2021/06/10 11:08:20;;;;;;;22.80;14.38;;;;;;;;;;5093721;28;20475;-51
2021/06/10 11:10:50;;;;;;;69.20;32.97;;;;;;;;;;5093778;28;20027;-54
2021/06/10 11:13:19;;;;;;;25.88;14.27;;;;;;;;;;5092708;28;20069;-52
2021/06/10 11:15:45;;;;;;;62.55;26.55;;;;;;;;;;5093486;28;20043;-54
2021/06/10 11:18:12;;;;;;;61.58;21.08;;;;;;;;;;5093083;28;20035;-56
2021/06/10 11:20:39;;;;;;;24.33;8.80;;;;;;;;;;5093801;28;20361;-54
2021/06/10 11:23:15;;;;;;;16.20;9.57;;;;;;;;;;5094032;28;20031;-48
2021/06/10 11:25:45;;;;;;;7.10;5.07;;;;;;;;;;5093663;28;20031;-45
2021/06/10 11:28:16;;;;;;;5.23;3.87;;;;;;;;;;5093572;28;20026;-48
2021/06/10 11:30:43;;;;;;;4.68;3.50;;;;;;;;;;5093490;28;20480;-48
2021/06/10 11:33:10;;;;;;;4.18;3.35;;;;;;;;;;5093600;28;20024;-56
2021/06/10 11:35:38;;;;;;;4.72;3.33;;;;;;;;;;5093470;28;20028;-56
2021/06/10 11:38:16;;;;;;;6.18;3.50;;;;;;;;;;5093567;28;20086;-56
2021/06/10 11:40:44;;;;;;;2.92;2.60;;;;;;;;;;5093445;28;20020;-56
2021/06/10 11:43:11;;;;;;;3.78;2.92;;;;;;;;;;5093708;28;20032;-56
2021/06/10 11:45:38;;;;;;;5.68;3.42;;;;;;;;;;5093538;28;20024;-52
2021/06/10 11:48:04;;;;;;;3.65;3.20;;;;;;;;;;5093775;28;20030;-56
2021/06/10 11:50:41;;;;;;;10.23;7.00;;;;;;;;;;5093495;28;20495;-52
2021/06/10 11:53:18;;;;;;;12.80;7.95;;;;;;;;;;5093370;28;20464;-50
2021/06/10 11:55:44;;;;;;;12.38;7.70;;;;;;;;;;5093232;28;20457;-55
2021/06/10 11:58:11;;;;;;;23.05;14.25;;;;;;;;;;5093263;28;20028;-52
2021/06/10 12:00:40;;;;;;;10.88;6.10;;;;;;;;;;5093222;28;20460;-58
2021/06/10 12:03:07;;;;;;;15.38;8.13;;;;;;;;;;5093287;28;20115;-55
2021/06/10 12:05:36;;;;;;;6.05;4.70;;;;;;;;;;5093248;28;20216;-53
2021/06/10 12:08:08;;;;;;;6.90;4.60;;;;;;;;;;5093179;28;20099;-46
2021/06/10 12:10:34;;;;;;;6.75;4.80;;;;;;;;;;5093122;28;20080;-57
2021/06/10 12:13:00;;;;;;;8.85;5.85;;;;;;;;;;5093041;28;20060;-56
2021/06/10 12:15:28;;;;;;;9.80;5.70;;;;;;;;;;5092990;28;20021;-46
2021/06/10 12:17:56;;;;;;;6.68;3.78;;;;;;;;;;5093069;28;20035;-51
2021/06/10 12:20:23;;;;;;;3.15;2.55;;;;;;;;;;5093362;28;20024;-46
2021/06/10 12:22:50;;;;;;;4.40;2.88;;;;;;;;;;5093277;28;20028;-47
2021/06/10 12:25:32;;;;;;;4.32;3.20;;;;;;;;;;5094491;28;20016;-53
2021/06/10 12:27:59;;;;;;;3.42;3.13;;;;;;;;;;5097056;28;20020;-60
2021/06/10 12:30:29;;;;;;;3.95;3.58;;;;;;;;;;5096907;28;20020;-54
2021/06/10 12:33:15;;;;;;;3.55;2.80;;;;;;;;;;5096808;28;20028;-49
2021/06/10 12:35:43;;;;;;;4.15;3.65;;;;;;;;;;5097050;28;20024;-58
2021/06/10 12:38:10;;;;;;;3.75;3.17;;;;;;;;;;5096621;28;20028;-58
2021/06/10 12:40:40;;;;;;;5.05;3.03;;;;;;;;;;5096733;28;20031;-49
2021/06/10 12:43:11;;;;;;;7.18;4.65;;;;;;;;;;5096921;28;20039;-59
2021/06/10 12:45:37;;;;;;;;;;;;;;;;;;5097032;28;20031;-55
2021/06/10 12:48:19;;;;;;;8.73;6.28;;;;;;;;;;5096565;28;20347;-55
2021/06/10 12:50:45;;;;;;;9.93;7.05;;;;;;;;;;5096470;28;20156;-57
2021/06/10 12:53:16;;;;;;;11.07;7.40;;;;;;;;;;5096520;28;20036;-55
2021/06/10 12:55:42;;;;;;;8.85;5.28;;;;;;;;;;5096403;28;20468;-49
2021/06/10 12:58:08;;;;;;;2.90;2.50;;;;;;;;;;5096292;28;20044;-56
2021/06/10 13:00:36;;;;;;;4.32;2.90;;;;;;;;;;5096258;28;20024;-56
2021/06/10 13:03:08;;;;;;;2.65;2.10;;;;;;;;;;5096433;28;20024;-56
2021/06/10 13:05:35;;;;;;;2.28;2.00;;;;;;;;;;5096390;28;20016;-53
2021/06/10 13:08:01;;;;;;;2.25;2.03;;;;;;;;;;5096380;28;20024;-55
2021/06/10 13:10:47;;;;;;;19.17;10.20;;;;;;;;;;5096012;28;20025;-54
2021/06/10 13:13:29;;;;;;;12.32;8.38;;;;;;;;;;5095870;28;20048;-58
2021/06/10 13:16:02;;;;;;;4.68;3.72;;;;;;;;;;5095954;28;20074;-46
2021/06/10 13:18:32;;;;;;;14.00;9.38;;;;;;;;;;5096012;28;20453;-55
2021/06/10 13:21:00;;;;;;;4.55;3.28;;;;;;;;;;5095919;28;20103;-55
2021/06/10 13:23:29;;;;;;;4.30;2.28;;;;;;;;;;5095894;28;20080;-54
2021/06/10 13:26:15;;;;;;;2.60;2.15;;;;;;;;;;5095729;28;20037;-54
2021/06/10 13:28:43;;;;;;;4.15;1.83;;;;;;;;;;5096258;28;20028;-56
2021/06/10 13:31:15;;;;;;;3.60;1.77;;;;;;;;;;5095660;28;20461;-51
2021/06/10 13:33:41;;;;;;;11.18;7.85;;;;;;;;;;5095744;28;20028;-55
2021/06/10 13:36:13;;;;;;;23.75;14.43;;;;;;;;;;5095118;28;20020;-44
2021/06/10 13:38:39;;;;;;;23.80;13.13;;;;;;;;;;5095546;28;20115;-45
2021/06/10 13:41:06;;;;;;;9.60;6.13;;;;;;;;;;5095905;28;20090;-46
2021/06/10 13:43:36;;;;;;;6.60;3.50;;;;;;;;;;5095498;28;20086;-55
2021/06/10 13:46:03;;;;;;;4.72;3.90;;;;;;;;;;5095457;28;20023;-45
2021/06/10 13:48:29;;;;;;;2.90;2.70;;;;;;;;;;5095408;28;20408;-50
2021/06/10 13:50:55;;;;;;;3.00;2.70;;;;;;;;;;5095558;28;20028;-48
2021/06/10 13:53:21;;;;;;;2.45;2.17;;;;;;;;;;5095343;28;20107;-44
2021/06/10 13:55:48;;;;;;;2.88;2.20;;;;;;;;;;5095416;28;20024;-53
2021/06/10 13:58:16;;;;;;;3.40;2.47;;;;;;;;;;5094940;28;20093;-43
2021/06/10 14:00:43;;;;;;;4.53;2.78;;;;;;;;;;5078563;28;20491;-43
2021/06/10 14:03:09;;;;;;;2.47;2.28;;;;;;;;;;5074314;28;20380;-47
2021/06/10 14:05:35;;;;;;;19.33;12.77;;;;;;;;;;5071555;28;20024;-42
2021/06/10 14:08:02;;;;;;;35.72;22.83;;;;;;;;;;5074203;28;20062;-43
2021/06/10 14:10:29;;;;;;;73.85;46.13;;;;;;;;;;5072802;28;20074;-43
2021/06/10 14:12:55;;;;;;;31.85;21.00;;;;;;;;;;5073984;28;20107;-56
2021/06/10 14:15:22;;;;;;;56.63;39.85;;;;;;;;;;5073987;28;20507;-59
2021/06/10 14:17:48;;;;;;;42.67;26.55;;;;;;;;;;5073859;28;20028;-55
2021/06/10 14:20:14;;;;;;;23.67;13.68;;;;;;;;;;5073892;28;20469;-55
2021/06/10 14:22:41;;;;;;;8.68;6.72;;;;;;;;;;5074302;28;20031;-45
2021/06/10 14:25:07;;;;;;;5.80;4.28;;;;;;;;;;5073919;28;20051;-56
2021/06/10 14:27:34;;;;;;;5.90;4.32;;;;;;;;;;5073944;28;20029;-53
2021/06/10 14:32:44;;;;;;;5.68;2.95;;;;;;;;;;5074124;28;20043;-49
2021/06/10 14:35:10;;;;;;;3.58;2.78;;;;;;;;;;5074063;28;20103;-54
2021/06/10 14:37:37;;;;;;;2.92;2.67;;;;;;;;;;5074044;28;20061;-55
2021/06/10 14:40:07;;;;;;;2.95;2.65;;;;;;;;;;5074065;28;20496;-56